Details From CYKF - WATERLOO
To CYVV - WIARTON
Flight Number -
Tags decoded
Created
Modified
Stats Distance 83 nm / 154 km
Max Altitude 0 ft / 0 m
Waypoints 3
Social Downloads 4
Likes 0
Share VATSIM

Download

Looking for another format? Having issues loading an existing format? Contact us
Advertisement - Login to hide

Notes

Requested: CYKF CPN4 YVV CYVV Unmatched points: CPN4

Route

CYKF YVV CYVV

ID Type Via Altitude Latitude Longitude Leg Dist Tot Dist Heading (true) Name
O CYKF APT - 0 ft / 0 m 43.46008˚ -80.38261˚ - 0 nm - WATERLOO
YVV VOR - 0 ft / 0 m 44.74483˚ -81.10497˚ 83 nm 83 nm 338° / 338° WIARTON VOR-DME
O CYVV APT - 0 ft / 0 m 44.74313˚ -81.10819˚ 0 nm 83 nm 233° / 233° WIARTON

Altitude Profile

Advertisement - Login to hide

CYKF

Details ICAO CYKF (YKF)
Name WATERLOO
Region Canada
Timezone America/Toronto (UTC-5.0)
Stats Elevation 1,054 ft / 321 m (AMSL)
Location 43.460084° -80.382613°
Runways 2
Magnetic Variation 9.733° W

METAR

CYKF 161500Z AUTO 28013KT 9SM OVC060 M05/M08 A2991 RMK SLP145

Decode

TAF

TAF CYKF 161338Z 1614/1702 28006KT P6SM OVC040 TEMPO 1614/1617 2SM -SN OVC020 FM161700 29010KT P6SM OVC025 TEMPO 1617/1621 OVC020 FM162100 34008KT P6SM BKN030 RMK FCST BASED ON AUTO OBS. NXT FCST BY 162000Z

Decode

Departure Runways

ID Width Length Bearing (true) Bearing (mag) Surface Threshold Offset Overrun Length
08 150 ft / 46 m 6,988 ft / 2,130 m 64.02° 73.75° Asphalt 0 ft / 0 m 0 ft / 0 m
14 150 ft / 46 m 4,055 ft / 1,236 m 128.69° 138.42° Asphalt 0 ft / 0 m 0 ft / 0 m
26 150 ft / 46 m 6,988 ft / 2,130 m 244.03° 253.76° Asphalt 0 ft / 0 m 0 ft / 0 m
32 150 ft / 46 m 4,055 ft / 1,236 m 308.69° 318.42° Asphalt 0 ft / 0 m 0 ft / 0 m

CYVV

Details ICAO CYVV (YVV)
Name WIARTON
Region Canada
Timezone America/Toronto (UTC-5.0)
Stats Elevation 729 ft / 222 m (AMSL)
Location 44.743125° -81.108194°
Runways 2
Magnetic Variation 9.548° W

METAR

CYVV 161500Z 36004KT 310V060 15SM SCT012 SCT150 M09/M12 A2998 RMK SF3AC1 OCNL -SHSN SLP166

Decode

TAF

TAF CYVV 161338Z 1614/1624 32005KT P6SM FEW020 SCT040 TEMPO 1614/1616 4SM -SHSN OVC020 FM161600 33008KT P6SM SCT170 RMK NXT FCST BY 162000Z

Decode

Destination Runways

ID Width Length Bearing (true) Bearing (mag) Surface Threshold Offset Overrun Length
05 150 ft / 46 m 5,026 ft / 1,532 m 43.44° 52.99° Asphalt 0 ft / 0 m 0 ft / 0 m
11 100 ft / 30 m 3,066 ft / 935 m 99.51° 109.06° Gravel 0 ft / 0 m 0 ft / 0 m
23 150 ft / 46 m 5,026 ft / 1,532 m 223.45° 233.00° Asphalt 0 ft / 0 m 0 ft / 0 m
29 100 ft / 30 m 3,066 ft / 935 m 279.52° 289.07° Gravel 0 ft / 0 m 0 ft / 0 m

Popular Alternatives